sensor_id;sensor_type;location;lat;lon;timestamp;temperature;humidity
6792;DHT22;3433;48.730;9.108;2022-09-13T00:01:28;17.40;95.20
6792;DHT22;3433;48.730;9.108;2022-09-13T00:03:56;17.50;95.10
6792;DHT22;3433;48.730;9.108;2022-09-13T00:06:24;17.50;94.50
6792;DHT22;3433;48.730;9.108;2022-09-13T00:08:51;17.50;94.40
6792;DHT22;3433;48.730;9.108;2022-09-13T00:11:21;17.50;94.20
6792;DHT22;3433;48.730;9.108;2022-09-13T00:13:48;17.50;94.20
6792;DHT22;3433;48.730;9.108;2022-09-13T00:16:19;17.50;94.20
6792;DHT22;3433;48.730;9.108;2022-09-13T00:18:46;17.50;94.20
6792;DHT22;3433;48.730;9.108;2022-09-13T00:21:17;17.40;94.30
6792;DHT22;3433;48.730;9.108;2022-09-13T00:23:45;17.40;94.20
6792;DHT22;3433;48.730;9.108;2022-09-13T00:26:15;17.30;94.10
6792;DHT22;3433;48.730;9.108;2022-09-13T00:28:43;17.30;94.10
6792;DHT22;3433;48.730;9.108;2022-09-13T00:31:11;17.20;94.20
6792;DHT22;3433;48.730;9.108;2022-09-13T00:33:39;17.20;94.20
6792;DHT22;3433;48.730;9.108;2022-09-13T00:36:07;17.20;94.20
6792;DHT22;3433;48.730;9.108;2022-09-13T00:38:37;17.10;94.20
6792;DHT22;3433;48.730;9.108;2022-09-13T00:41:06;17.00;94.20
6792;DHT22;3433;48.730;9.108;2022-09-13T00:43:43;17.10;94.40
6792;DHT22;3433;48.730;9.108;2022-09-13T00:46:14;17.00;94.30
6792;DHT22;3433;48.730;9.108;2022-09-13T00:48:45;16.90;94.30
6792;DHT22;3433;48.730;9.108;2022-09-13T00:51:13;16.90;94.40
6792;DHT22;3433;48.730;9.108;2022-09-13T00:53:44;16.80;94.30
6792;DHT22;3433;48.730;9.108;2022-09-13T00:56:16;16.80;94.40
6792;DHT22;3433;48.730;9.108;2022-09-13T00:58:47;16.80;94.40
6792;DHT22;3433;48.730;9.108;2022-09-13T01:01:18;16.70;94.70
6792;DHT22;3433;48.730;9.108;2022-09-13T01:03:46;16.70;94.40
6792;DHT22;3433;48.730;9.108;2022-09-13T01:06:16;16.60;94.30
6792;DHT22;3433;48.730;9.108;2022-09-13T01:08:48;16.60;94.50
6792;DHT22;3433;48.730;9.108;2022-09-13T01:11:22;16.60;94.60
6792;DHT22;3433;48.730;9.108;2022-09-13T01:13:51;16.50;94.50
6792;DHT22;3433;48.730;9.108;2022-09-13T01:16:18;16.50;94.50
6792;DHT22;3433;48.730;9.108;2022-09-13T01:18:45;16.50;94.50
6792;DHT22;3433;48.730;9.108;2022-09-13T01:24:45;16.40;94.70
6792;DHT22;3433;48.730;9.108;2022-09-13T01:27:27;16.30;94.70
6792;DHT22;3433;48.730;9.108;2022-09-13T01:30:04;16.30;94.80
6792;DHT22;3433;48.730;9.108;2022-09-13T01:32:38;16.30;94.80
6792;DHT22;3433;48.730;9.108;2022-09-13T01:35:15;16.30;94.90
6792;DHT22;3433;48.730;9.108;2022-09-13T01:37:54;16.30;94.90
6792;DHT22;3433;48.730;9.108;2022-09-13T01:40:42;16.30;95.00
6792;DHT22;3433;48.730;9.108;2022-09-13T01:43:30;16.30;95.00
6792;DHT22;3433;48.730;9.108;2022-09-13T01:46:04;16.20;95.00
6792;DHT22;3433;48.730;9.108;2022-09-13T01:48:40;16.30;95.30
6792;DHT22;3433;48.730;9.108;2022-09-13T01:51:16;16.20;95.10
6792;DHT22;3433;48.730;9.108;2022-09-13T01:53:52;16.20;95.60
6792;DHT22;3433;48.730;9.108;2022-09-13T01:56:25;16.20;95.30
6792;DHT22;3433;48.730;9.108;2022-09-13T01:58:57;16.10;95.30
6792;DHT22;3433;48.730;9.108;2022-09-13T02:01:30;16.10;95.40
6792;DHT22;3433;48.730;9.108;2022-09-13T02:04:02;16.10;95.40
6792;DHT22;3433;48.730;9.108;2022-09-13T02:06:33;16.10;95.30
6792;DHT22;3433;48.730;9.108;2022-09-13T02:09:07;16.10;95.40
6792;DHT22;3433;48.730;9.108;2022-09-13T02:11:37;16.10;95.50
6792;DHT22;3433;48.730;9.108;2022-09-13T02:14:10;16.00;95.50
6792;DHT22;3433;48.730;9.108;2022-09-13T02:16:42;16.00;95.50
6792;DHT22;3433;48.730;9.108;2022-09-13T02:19:14;16.10;95.70
6792;DHT22;3433;48.730;9.108;2022-09-13T02:21:46;16.10;95.60
6792;DHT22;3433;48.730;9.108;2022-09-13T02:24:19;16.10;96.10
6792;DHT22;3433;48.730;9.108;2022-09-13T02:26:51;16.10;95.80
6792;DHT22;3433;48.730;9.108;2022-09-13T02:29:20;16.10;95.90
6792;DHT22;3433;48.730;9.108;2022-09-13T02:31:54;16.10;95.80
6792;DHT22;3433;48.730;9.108;2022-09-13T02:34:23;16.00;95.90
6792;DHT22;3433;48.730;9.108;2022-09-13T02:36:55;16.00;95.80
6792;DHT22;3433;48.730;9.108;2022-09-13T02:39:24;16.00;96.00
6792;DHT22;3433;48.730;9.108;2022-09-13T02:41:55;16.10;96.00
6792;DHT22;3433;48.730;9.108;2022-09-13T02:44:30;16.10;96.20
6792;DHT22;3433;48.730;9.108;2022-09-13T02:47:12;16.10;97.10
6792;DHT22;3433;48.730;9.108;2022-09-13T02:49:48;16.10;96.60
6792;DHT22;3433;48.730;9.108;2022-09-13T02:52:23;16.10;96.70
6792;DHT22;3433;48.730;9.108;2022-09-13T02:54:58;16.20;97.00
6792;DHT22;3433;48.730;9.108;2022-09-13T02:57:35;16.10;96.40
6792;DHT22;3433;48.730;9.108;2022-09-13T03:00:05;16.20;96.60
6792;DHT22;3433;48.730;9.108;2022-09-13T03:02:34;16.10;97.40
6792;DHT22;3433;48.730;9.108;2022-09-13T03:05:03;16.10;97.00
6792;DHT22;3433;48.730;9.108;2022-09-13T03:07:31;16.10;96.80
6792;DHT22;3433;48.730;9.108;2022-09-13T03:10:00;16.20;97.40
6792;DHT22;3433;48.730;9.108;2022-09-13T03:12:43;16.10;98.30
6792;DHT22;3433;48.730;9.108;2022-09-13T03:15:23;16.10;98.30
6792;DHT22;3433;48.730;9.108;2022-09-13T03:18:04;16.20;99.00
6792;DHT22;3433;48.730;9.108;2022-09-13T03:20:40;16.30;98.40
6792;DHT22;3433;48.730;9.108;2022-09-13T03:23:21;16.30;98.90
6792;DHT22;3433;48.730;9.108;2022-09-13T03:26:02;16.40;98.30
6792;DHT22;3433;48.730;9.108;2022-09-13T03:28:37;16.40;99.20
6792;DHT22;3433;48.730;9.108;2022-09-13T03:31:08;16.50;98.20
6792;DHT22;3433;48.730;9.108;2022-09-13T03:33:45;16.50;98.30
6792;DHT22;3433;48.730;9.108;2022-09-13T03:36:18;16.50;97.90
6792;DHT22;3433;48.730;9.108;2022-09-13T03:38:54;16.50;97.60
6792;DHT22;3433;48.730;9.108;2022-09-13T03:41:28;16.60;97.70
6792;DHT22;3433;48.730;9.108;2022-09-13T03:43:59;16.60;97.80
6792;DHT22;3433;48.730;9.108;2022-09-13T03:46:31;16.60;97.40
6792;DHT22;3433;48.730;9.108;2022-09-13T03:49:03;16.60;97.80
6792;DHT22;3433;48.730;9.108;2022-09-13T03:51:32;16.50;98.20
6792;DHT22;3433;48.730;9.108;2022-09-13T03:54:02;16.50;97.90
6792;DHT22;3433;48.730;9.108;2022-09-13T03:56:30;16.50;97.60
6792;DHT22;3433;48.730;9.108;2022-09-13T03:58:57;16.50;97.50
6792;DHT22;3433;48.730;9.108;2022-09-13T04:01:24;16.60;97.50
6792;DHT22;3433;48.730;9.108;2022-09-13T04:03:52;16.60;97.40
6792;DHT22;3433;48.730;9.108;2022-09-13T04:06:20;16.60;97.40
6792;DHT22;3433;48.730;9.108;2022-09-13T04:08:47;16.60;97.30
6792;DHT22;3433;48.730;9.108;2022-09-13T04:11:14;16.60;97.30
6792;DHT22;3433;48.730;9.108;2022-09-13T04:13:42;16.50;97.40
6792;DHT22;3433;48.730;9.108;2022-09-13T04:16:12;16.50;97.30
6792;DHT22;3433;48.730;9.108;2022-09-13T04:18:39;16.50;97.40
6792;DHT22;3433;48.730;9.108;2022-09-13T04:21:08;16.50;97.20
6792;DHT22;3433;48.730;9.108;2022-09-13T04:23:36;16.40;97.20
6792;DHT22;3433;48.730;9.108;2022-09-13T04:26:04;16.40;97.30
6792;DHT22;3433;48.730;9.108;2022-09-13T04:28:31;16.40;97.30
6792;DHT22;3433;48.730;9.108;2022-09-13T04:30:58;16.30;97.20
6792;DHT22;3433;48.730;9.108;2022-09-13T04:33:25;16.30;97.30
6792;DHT22;3433;48.730;9.108;2022-09-13T04:35:58;16.30;97.20
6792;DHT22;3433;48.730;9.108;2022-09-13T04:38:26;16.20;97.30
6792;DHT22;3433;48.730;9.108;2022-09-13T04:40:57;16.20;97.40
6792;DHT22;3433;48.730;9.108;2022-09-13T04:43:24;16.20;97.60
6792;DHT22;3433;48.730;9.108;2022-09-13T04:45:51;16.10;97.60
6792;DHT22;3433;48.730;9.108;2022-09-13T04:48:19;16.10;97.80
6792;DHT22;3433;48.730;9.108;2022-09-13T04:50:46;16.10;97.80
6792;DHT22;3433;48.730;9.108;2022-09-13T04:53:13;16.10;98.00
6792;DHT22;3433;48.730;9.108;2022-09-13T04:55:40;16.10;98.00
6792;DHT22;3433;48.730;9.108;2022-09-13T04:58:09;16.10;98.00
6792;DHT22;3433;48.730;9.108;2022-09-13T05:00:36;16.10;98.10
6792;DHT22;3433;48.730;9.108;2022-09-13T05:03:03;16.20;98.30
6792;DHT22;3433;48.730;9.108;2022-09-13T05:05:31;16.20;98.40
6792;DHT22;3433;48.730;9.108;2022-09-13T05:07:58;16.20;98.40
6792;DHT22;3433;48.730;9.108;2022-09-13T05:10:25;16.20;98.50
6792;DHT22;3433;48.730;9.108;2022-09-13T05:12:53;16.30;99.90
6792;DHT22;3433;48.730;9.108;2022-09-13T05:15:21;16.50;99.90
6792;DHT22;3433;48.730;9.108;2022-09-13T05:17:48;16.70;99.90
6792;DHT22;3433;48.730;9.108;2022-09-13T05:20:15;16.90;99.90
6792;DHT22;3433;48.730;9.108;2022-09-13T05:22:43;17.10;99.90
6792;DHT22;3433;48.730;9.108;2022-09-13T05:25:10;17.30;99.90
6792;DHT22;3433;48.730;9.108;2022-09-13T05:27:37;17.50;99.90
6792;DHT22;3433;48.730;9.108;2022-09-13T05:30:06;17.80;99.90
6792;DHT22;3433;48.730;9.108;2022-09-13T05:32:34;18.00;99.90
6792;DHT22;3433;48.730;9.108;2022-09-13T05:35:02;18.10;99.90
6792;DHT22;3433;48.730;9.108;2022-09-13T05:37:29;18.10;99.90
6792;DHT22;3433;48.730;9.108;2022-09-13T05:39:56;18.00;99.90
6792;DHT22;3433;48.730;9.108;2022-09-13T05:42:23;18.00;99.90
6792;DHT22;3433;48.730;9.108;2022-09-13T05:44:50;17.90;99.80
6792;DHT22;3433;48.730;9.108;2022-09-13T05:47:17;17.80;99.60
6792;DHT22;3433;48.730;9.108;2022-09-13T05:49:46;17.80;99.60
6792;DHT22;3433;48.730;9.108;2022-09-13T05:52:13;17.70;99.50
6792;DHT22;3433;48.730;9.108;2022-09-13T05:54:40;17.60;99.50
6792;DHT22;3433;48.730;9.108;2022-09-13T05:57:07;17.60;99.60
6792;DHT22;3433;48.730;9.108;2022-09-13T05:59:34;17.50;99.60
6792;DHT22;3433;48.730;9.108;2022-09-13T06:02:01;17.50;99.70
6792;DHT22;3433;48.730;9.108;2022-09-13T06:04:28;17.50;99.70
6792;DHT22;3433;48.730;9.108;2022-09-13T06:06:59;17.50;99.80
6792;DHT22;3433;48.730;9.108;2022-09-13T06:09:27;17.50;99.90
6792;DHT22;3433;48.730;9.108;2022-09-13T06:11:54;17.50;99.90
6792;DHT22;3433;48.730;9.108;2022-09-13T06:14:21;17.50;99.90
6792;DHT22;3433;48.730;9.108;2022-09-13T06:16:48;17.50;99.90
6792;DHT22;3433;48.730;9.108;2022-09-13T06:19:16;17.50;99.90
6792;DHT22;3433;48.730;9.108;2022-09-13T06:21:43;17.50;99.90
6792;DHT22;3433;48.730;9.108;2022-09-13T06:24:11;17.60;99.90
6792;DHT22;3433;48.730;9.108;2022-09-13T06:26:39;17.60;99.90
6792;DHT22;3433;48.730;9.108;2022-09-13T06:29:09;17.60;99.90
6792;DHT22;3433;48.730;9.108;2022-09-13T06:31:36;17.60;99.90
6792;DHT22;3433;48.730;9.108;2022-09-13T06:34:10;17.60;99.90
6792;DHT22;3433;48.730;9.108;2022-09-13T06:36:37;17.70;99.90
6792;DHT22;3433;48.730;9.108;2022-09-13T06:39:04;17.60;99.90
6792;DHT22;3433;48.730;9.108;2022-09-13T06:41:33;17.60;99.90
6792;DHT22;3433;48.730;9.108;2022-09-13T06:44:01;17.70;99.90
6792;DHT22;3433;48.730;9.108;2022-09-13T06:46:29;17.80;99.90
6792;DHT22;3433;48.730;9.108;2022-09-13T06:48:58;17.80;99.90
6792;DHT22;3433;48.730;9.108;2022-09-13T06:51:26;17.90;99.90
6792;DHT22;3433;48.730;9.108;2022-09-13T06:53:57;18.10;99.90
6792;DHT22;3433;48.730;9.108;2022-09-13T06:56:25;18.10;99.90
6792;DHT22;3433;48.730;9.108;2022-09-13T06:58:59;18.20;99.90
6792;DHT22;3433;48.730;9.108;2022-09-13T07:01:29;18.40;99.90
6792;DHT22;3433;48.730;9.108;2022-09-13T07:04:11;18.40;99.90
6792;DHT22;3433;48.730;9.108;2022-09-13T07:06:45;18.50;99.90
6792;DHT22;3433;48.730;9.108;2022-09-13T07:09:14;18.70;99.90
6792;DHT22;3433;48.730;9.108;2022-09-13T07:11:43;19.00;99.90
6792;DHT22;3433;48.730;9.108;2022-09-13T07:14:15;18.90;99.90
6792;DHT22;3433;48.730;9.108;2022-09-13T07:16:43;18.80;99.90
6792;DHT22;3433;48.730;9.108;2022-09-13T07:19:13;18.80;99.90
6792;DHT22;3433;48.730;9.108;2022-09-13T07:21:41;19.00;99.90
6792;DHT22;3433;48.730;9.108;2022-09-13T07:24:09;19.20;99.90
6792;DHT22;3433;48.730;9.108;2022-09-13T07:26:37;19.30;99.90
6792;DHT22;3433;48.730;9.108;2022-09-13T07:29:09;19.50;99.90
6792;DHT22;3433;48.730;9.108;2022-09-13T07:31:39;19.60;99.90
6792;DHT22;3433;48.730;9.108;2022-09-13T07:34:11;19.60;99.90
6792;DHT22;3433;48.730;9.108;2022-09-13T07:36:38;19.70;99.90
6792;DHT22;3433;48.730;9.108;2022-09-13T07:39:06;19.90;99.90
6792;DHT22;3433;48.730;9.108;2022-09-13T07:41:33;20.00;99.90
6792;DHT22;3433;48.730;9.108;2022-09-13T07:44:02;20.00;99.90
6792;DHT22;3433;48.730;9.108;2022-09-13T07:46:32;20.20;99.90
6792;DHT22;3433;48.730;9.108;2022-09-13T07:49:02;20.40;99.80
6792;DHT22;3433;48.730;9.108;2022-09-13T07:51:31;20.40;99.70
6792;DHT22;3433;48.730;9.108;2022-09-13T07:53:59;20.40;99.80
6792;DHT22;3433;48.730;9.108;2022-09-13T07:56:28;20.60;99.90
6792;DHT22;3433;48.730;9.108;2022-09-13T07:58:58;20.70;99.30
6792;DHT22;3433;48.730;9.108;2022-09-13T08:01:27;20.80;99.60
6792;DHT22;3433;48.730;9.108;2022-09-13T08:03:56;21.00;99.70
6792;DHT22;3433;48.730;9.108;2022-09-13T08:06:26;21.20;99.50
6792;DHT22;3433;48.730;9.108;2022-09-13T08:08:54;21.50;99.60
6792;DHT22;3433;48.730;9.108;2022-09-13T08:11:23;21.60;98.90
6792;DHT22;3433;48.730;9.108;2022-09-13T08:13:51;21.70;99.30
6792;DHT22;3433;48.730;9.108;2022-09-13T08:16:19;22.00;99.00
6792;DHT22;3433;48.730;9.108;2022-09-13T08:18:48;22.10;98.70
6792;DHT22;3433;48.730;9.108;2022-09-13T08:21:16;22.20;98.60
6792;DHT22;3433;48.730;9.108;2022-09-13T08:23:45;22.20;98.40
6792;DHT22;3433;48.730;9.108;2022-09-13T08:26:12;22.20;98.50
6792;DHT22;3433;48.730;9.108;2022-09-13T08:28:40;22.20;99.00
6792;DHT22;3433;48.730;9.108;2022-09-13T08:31:09;22.30;99.00
6792;DHT22;3433;48.730;9.108;2022-09-13T08:33:36;22.50;98.90
6792;DHT22;3433;48.730;9.108;2022-09-13T08:36:04;22.50;98.00
6792;DHT22;3433;48.730;9.108;2022-09-13T08:38:32;22.70;98.10
6792;DHT22;3433;48.730;9.108;2022-09-13T08:41:02;22.80;97.60
6792;DHT22;3433;48.730;9.108;2022-09-13T08:43:39;23.00;98.20
6792;DHT22;3433;48.730;9.108;2022-09-13T08:46:20;23.00;98.30
6792;DHT22;3433;48.730;9.108;2022-09-13T08:48:51;23.30;97.80
6792;DHT22;3433;48.730;9.108;2022-09-13T08:51:29;23.30;97.80
6792;DHT22;3433;48.730;9.108;2022-09-13T08:53:58;23.40;97.40
6792;DHT22;3433;48.730;9.108;2022-09-13T08:56:37;23.40;97.90
6792;DHT22;3433;48.730;9.108;2022-09-13T08:59:35;23.40;97.60
6792;DHT22;3433;48.730;9.108;2022-09-13T09:02:17;23.20;96.80
6792;DHT22;3433;48.730;9.108;2022-09-13T09:04:53;23.20;97.70
6792;DHT22;3433;48.730;9.108;2022-09-13T09:07:22;23.50;98.10
6792;DHT22;3433;48.730;9.108;2022-09-13T09:09:52;23.50;96.50
6792;DHT22;3433;48.730;9.108;2022-09-13T09:12:28;23.60;95.90
6792;DHT22;3433;48.730;9.108;2022-09-13T09:15:03;23.90;96.80
6792;DHT22;3433;48.730;9.108;2022-09-13T09:17:38;24.30;96.20
6792;DHT22;3433;48.730;9.108;2022-09-13T09:20:19;24.20;96.70
6792;DHT22;3433;48.730;9.108;2022-09-13T09:22:50;24.20;95.40
6792;DHT22;3433;48.730;9.108;2022-09-13T09:25:19;24.10;95.40
6792;DHT22;3433;48.730;9.108;2022-09-13T09:27:49;24.30;96.50
6792;DHT22;3433;48.730;9.108;2022-09-13T09:30:16;24.50;96.60
6792;DHT22;3433;48.730;9.108;2022-09-13T09:32:54;24.60;95.60
6792;DHT22;3433;48.730;9.108;2022-09-13T09:35:32;24.80;95.60
6792;DHT22;3433;48.730;9.108;2022-09-13T09:38:34;25.00;95.00
6792;DHT22;3433;48.730;9.108;2022-09-13T09:41:06;24.90;94.40
6792;DHT22;3433;48.730;9.108;2022-09-13T09:43:43;24.90;94.50
6792;DHT22;3433;48.730;9.108;2022-09-13T09:46:13;25.00;95.00
6792;DHT22;3433;48.730;9.108;2022-09-13T09:48:46;25.20;94.30
6792;DHT22;3433;48.730;9.108;2022-09-13T09:51:16;25.50;94.20
6792;DHT22;3433;48.730;9.108;2022-09-13T09:53:47;25.70;93.60
6792;DHT22;3433;48.730;9.108;2022-09-13T09:56:20;25.70;92.50
6792;DHT22;3433;48.730;9.108;2022-09-13T09:58:51;25.70;93.90
6792;DHT22;3433;48.730;9.108;2022-09-13T10:01:23;25.90;94.60
6792;DHT22;3433;48.730;9.108;2022-09-13T10:03:57;25.90;92.00
6792;DHT22;3433;48.730;9.108;2022-09-13T10:06:27;26.10;93.10
6792;DHT22;3433;48.730;9.108;2022-09-13T10:08:59;26.30;93.10
6792;DHT22;3433;48.730;9.108;2022-09-13T10:11:48;26.40;92.00
6792;DHT22;3433;48.730;9.108;2022-09-13T10:14:34;26.40;90.50
6792;DHT22;3433;48.730;9.108;2022-09-13T10:17:04;26.40;91.10
6792;DHT22;3433;48.730;9.108;2022-09-13T10:19:32;26.50;91.40
6792;DHT22;3433;48.730;9.108;2022-09-13T10:22:03;26.80;90.50
6792;DHT22;3433;48.730;9.108;2022-09-13T10:24:32;26.90;88.20
6792;DHT22;3433;48.730;9.108;2022-09-13T10:26:59;27.20;90.10
6792;DHT22;3433;48.730;9.108;2022-09-13T10:29:29;27.30;89.90
6792;DHT22;3433;48.730;9.108;2022-09-13T10:31:57;27.60;91.20
6792;DHT22;3433;48.730;9.108;2022-09-13T10:34:30;27.50;88.00
6792;DHT22;3433;48.730;9.108;2022-09-13T10:36:59;27.70;90.20
6792;DHT22;3433;48.730;9.108;2022-09-13T10:39:30;28.00;86.70
6792;DHT22;3433;48.730;9.108;2022-09-13T10:42:00;27.70;84.60
6792;DHT22;3433;48.730;9.108;2022-09-13T10:44:33;27.80;86.80
6792;DHT22;3433;48.730;9.108;2022-09-13T10:47:05;28.10;88.80
6792;DHT22;3433;48.730;9.108;2022-09-13T10:49:37;28.40;84.10
6792;DHT22;3433;48.730;9.108;2022-09-13T10:52:30;28.50;85.00
6792;DHT22;3433;48.730;9.108;2022-09-13T10:55:30;28.70;83.10
6792;DHT22;3433;48.730;9.108;2022-09-13T10:58:18;28.60;79.50
6792;DHT22;3433;48.730;9.108;2022-09-13T11:06:47;29.40;78.50
6792;DHT22;3433;48.730;9.108;2022-09-13T11:09:20;29.50;82.10
6792;DHT22;3433;48.730;9.108;2022-09-13T11:11:57;29.50;75.80
6792;DHT22;3433;48.730;9.108;2022-09-13T11:14:49;29.50;75.80
6792;DHT22;3433;48.730;9.108;2022-09-13T11:17:29;29.50;76.50
6792;DHT22;3433;48.730;9.108;2022-09-13T11:20:14;29.60;77.80
6792;DHT22;3433;48.730;9.108;2022-09-13T11:23:05;29.60;77.20
6792;DHT22;3433;48.730;9.108;2022-09-13T11:25:50;29.80;75.60
6792;DHT22;3433;48.730;9.108;2022-09-13T11:28:27;30.00;76.40
6792;DHT22;3433;48.730;9.108;2022-09-13T11:31:10;30.00;76.50
6792;DHT22;3433;48.730;9.108;2022-09-13T11:34:15;30.20;78.20
6792;DHT22;3433;48.730;9.108;2022-09-13T11:36:56;29.80;69.30
6792;DHT22;3433;48.730;9.108;2022-09-13T11:39:30;30.00;69.50
6792;DHT22;3433;48.730;9.108;2022-09-13T11:42:07;30.30;77.60
6792;DHT22;3433;48.730;9.108;2022-09-13T11:45:11;30.40;72.80
6792;DHT22;3433;48.730;9.108;2022-09-13T11:47:51;30.50;72.20
6792;DHT22;3433;48.730;9.108;2022-09-13T11:50:35;30.70;73.90
6792;DHT22;3433;48.730;9.108;2022-09-13T11:53:25;30.80;73.60
6792;DHT22;3433;48.730;9.108;2022-09-13T11:55:57;30.60;68.40
6792;DHT22;3433;48.730;9.108;2022-09-13T11:58:28;30.50;67.20
6792;DHT22;3433;48.730;9.108;2022-09-13T12:01:00;30.00;63.20
6792;DHT22;3433;48.730;9.108;2022-09-13T12:03:35;29.60;64.60
6792;DHT22;3433;48.730;9.108;2022-09-13T12:06:10;29.60;71.90
6792;DHT22;3433;48.730;9.108;2022-09-13T12:08:42;29.60;71.60
6792;DHT22;3433;48.730;9.108;2022-09-13T12:11:14;29.40;67.30
6792;DHT22;3433;48.730;9.108;2022-09-13T12:13:45;29.30;72.00
6792;DHT22;3433;48.730;9.108;2022-09-13T12:16:17;29.20;69.60
6792;DHT22;3433;48.730;9.108;2022-09-13T12:18:48;29.20;73.20
6792;DHT22;3433;48.730;9.108;2022-09-13T12:21:20;29.20;73.20
6792;DHT22;3433;48.730;9.108;2022-09-13T12:23:50;29.30;72.70
6792;DHT22;3433;48.730;9.108;2022-09-13T12:26:22;29.30;70.60
6792;DHT22;3433;48.730;9.108;2022-09-13T12:28:53;29.40;71.40
6792;DHT22;3433;48.730;9.108;2022-09-13T12:31:23;29.60;72.60
6792;DHT22;3433;48.730;9.108;2022-09-13T12:33:52;29.80;73.10
6792;DHT22;3433;48.730;9.108;2022-09-13T12:36:37;29.90;73.10
6792;DHT22;3433;48.730;9.108;2022-09-13T12:39:32;29.90;72.60
6792;DHT22;3433;48.730;9.108;2022-09-13T12:45:16;30.10;70.70
6792;DHT22;3433;48.730;9.108;2022-09-13T12:47:58;30.10;71.70
6792;DHT22;3433;48.730;9.108;2022-09-13T12:50:50;29.90;68.60
6792;DHT22;3433;48.730;9.108;2022-09-13T12:53:36;30.00;73.00
6792;DHT22;3433;48.730;9.108;2022-09-13T13:02:02;30.30;66.60
6792;DHT22;3433;48.730;9.108;2022-09-13T13:04:32;30.90;71.40
6792;DHT22;3433;48.730;9.108;2022-09-13T13:07:03;31.40;70.50
6792;DHT22;3433;48.730;9.108;2022-09-13T13:09:38;31.50;64.30
6792;DHT22;3433;48.730;9.108;2022-09-13T13:12:08;31.70;70.00
6792;DHT22;3433;48.730;9.108;2022-09-13T13:14:46;32.10;62.60
6792;DHT22;3433;48.730;9.108;2022-09-13T13:17:42;31.80;65.30
6792;DHT22;3433;48.730;9.108;2022-09-13T13:20:41;31.40;66.60
6792;DHT22;3433;48.730;9.108;2022-09-13T13:23:23;31.90;66.20
6792;DHT22;3433;48.730;9.108;2022-09-13T13:26:04;32.10;66.20
6792;DHT22;3433;48.730;9.108;2022-09-13T13:28:50;31.90;63.40
6792;DHT22;3433;48.730;9.108;2022-09-13T13:31:38;31.90;61.80
6792;DHT22;3433;48.730;9.108;2022-09-13T13:34:37;31.30;61.80
6792;DHT22;3433;48.730;9.108;2022-09-13T13:40:19;32.10;65.40
6792;DHT22;3433;48.730;9.108;2022-09-13T13:42:48;32.60;66.00
6792;DHT22;3433;48.730;9.108;2022-09-13T13:45:24;32.60;62.90
6792;DHT22;3433;48.730;9.108;2022-09-13T13:48:09;32.50;66.10
6792;DHT22;3433;48.730;9.108;2022-09-13T13:53:48;32.00;62.00
6792;DHT22;3433;48.730;9.108;2022-09-13T13:56:32;31.90;64.40
6792;DHT22;3433;48.730;9.108;2022-09-13T13:59:05;31.70;59.10
6792;DHT22;3433;48.730;9.108;2022-09-13T14:01:36;31.50;60.70
6792;DHT22;3433;48.730;9.108;2022-09-13T14:04:33;31.30;62.80
6792;DHT22;3433;48.730;9.108;2022-09-13T14:07:11;31.70;63.60
6792;DHT22;3433;48.730;9.108;2022-09-13T14:09:49;31.90;60.60
6792;DHT22;3433;48.730;9.108;2022-09-13T14:12:31;31.60;59.60
6792;DHT22;3433;48.730;9.108;2022-09-13T14:15:23;31.90;62.10
6792;DHT22;3433;48.730;9.108;2022-09-13T14:20:59;31.50;60.50
6792;DHT22;3433;48.730;9.108;2022-09-13T14:23:26;31.40;60.20
6792;DHT22;3433;48.730;9.108;2022-09-13T14:25:55;31.50;60.30
6792;DHT22;3433;48.730;9.108;2022-09-13T14:28:23;31.60;58.30
6792;DHT22;3433;48.730;9.108;2022-09-13T14:30:57;31.70;59.00
6792;DHT22;3433;48.730;9.108;2022-09-13T14:33:26;31.90;61.20
6792;DHT22;3433;48.730;9.108;2022-09-13T14:36:02;31.90;58.00
6792;DHT22;3433;48.730;9.108;2022-09-13T14:38:31;31.70;57.30
6792;DHT22;3433;48.730;9.108;2022-09-13T14:41:09;31.80;59.20
6792;DHT22;3433;48.730;9.108;2022-09-13T14:43:38;31.70;58.80
6792;DHT22;3433;48.730;9.108;2022-09-13T14:46:09;31.70;62.30
6792;DHT22;3433;48.730;9.108;2022-09-13T14:48:40;31.70;59.40
6792;DHT22;3433;48.730;9.108;2022-09-13T14:51:15;31.30;61.90
6792;DHT22;3433;48.730;9.108;2022-09-13T14:53:45;31.30;61.50
6792;DHT22;3433;48.730;9.108;2022-09-13T14:56:18;31.10;57.40
6792;DHT22;3433;48.730;9.108;2022-09-13T14:58:48;30.80;59.30
6792;DHT22;3433;48.730;9.108;2022-09-13T15:01:20;30.60;60.90
6792;DHT22;3433;48.730;9.108;2022-09-13T15:03:48;30.50;62.10
6792;DHT22;3433;48.730;9.108;2022-09-13T15:06:21;30.60;60.70
6792;DHT22;3433;48.730;9.108;2022-09-13T15:08:49;30.40;61.20
6792;DHT22;3433;48.730;9.108;2022-09-13T15:11:28;30.20;56.20
6792;DHT22;3433;48.730;9.108;2022-09-13T15:14:15;30.00;61.40
6792;DHT22;3433;48.730;9.108;2022-09-13T15:16:50;30.00;58.70
6792;DHT22;3433;48.730;9.108;2022-09-13T15:19:29;30.00;57.80
6792;DHT22;3433;48.730;9.108;2022-09-13T15:22:08;29.60;56.20
6792;DHT22;3433;48.730;9.108;2022-09-13T15:24:43;29.60;59.10
6792;DHT22;3433;48.730;9.108;2022-09-13T15:27:18;29.60;60.90
6792;DHT22;3433;48.730;9.108;2022-09-13T15:29:48;29.30;58.90
6792;DHT22;3433;48.730;9.108;2022-09-13T15:32:29;29.30;58.50
6792;DHT22;3433;48.730;9.108;2022-09-13T15:34:58;29.10;59.20
6792;DHT22;3433;48.730;9.108;2022-09-13T15:37:31;29.00;56.10
6792;DHT22;3433;48.730;9.108;2022-09-13T15:40:13;28.70;57.80
6792;DHT22;3433;48.730;9.108;2022-09-13T15:42:43;28.60;59.20
6792;DHT22;3433;48.730;9.108;2022-09-13T15:45:10;28.60;58.70
6792;DHT22;3433;48.730;9.108;2022-09-13T15:47:39;28.60;57.00
6792;DHT22;3433;48.730;9.108;2022-09-13T15:50:08;28.30;58.20
6792;DHT22;3433;48.730;9.108;2022-09-13T15:52:37;28.30;57.50
6792;DHT22;3433;48.730;9.108;2022-09-13T15:55:05;28.10;59.00
6792;DHT22;3433;48.730;9.108;2022-09-13T15:57:32;27.90;59.80
6792;DHT22;3433;48.730;9.108;2022-09-13T16:00:00;27.90;60.40
6792;DHT22;3433;48.730;9.108;2022-09-13T16:02:30;27.70;59.60
6792;DHT22;3433;48.730;9.108;2022-09-13T16:04:59;27.50;60.80
6792;DHT22;3433;48.730;9.108;2022-09-13T16:07:26;27.50;62.20
6792;DHT22;3433;48.730;9.108;2022-09-13T16:09:54;27.50;60.90
6792;DHT22;3433;48.730;9.108;2022-09-13T16:12:21;27.40;62.00
6792;DHT22;3433;48.730;9.108;2022-09-13T16:14:49;27.30;61.80
6792;DHT22;3433;48.730;9.108;2022-09-13T16:17:20;27.20;62.70
6792;DHT22;3433;48.730;9.108;2022-09-13T16:19:47;27.20;63.00
6792;DHT22;3433;48.730;9.108;2022-09-13T16:22:16;27.20;62.50
6792;DHT22;3433;48.730;9.108;2022-09-13T16:24:43;27.10;62.50
6792;DHT22;3433;48.730;9.108;2022-09-13T16:27:11;27.00;64.20
6792;DHT22;3433;48.730;9.108;2022-09-13T16:29:39;27.00;63.60
6792;DHT22;3433;48.730;9.108;2022-09-13T16:32:07;26.90;62.30
6792;DHT22;3433;48.730;9.108;2022-09-13T16:34:34;26.80;63.40
6792;DHT22;3433;48.730;9.108;2022-09-13T16:37:01;26.80;64.30
6792;DHT22;3433;48.730;9.108;2022-09-13T16:39:29;26.80;65.40
6792;DHT22;3433;48.730;9.108;2022-09-13T16:41:56;26.70;64.00
6792;DHT22;3433;48.730;9.108;2022-09-13T16:44:23;26.50;63.10
6792;DHT22;3433;48.730;9.108;2022-09-13T16:46:50;26.50;63.90
6792;DHT22;3433;48.730;9.108;2022-09-13T16:49:17;26.50;64.70
6792;DHT22;3433;48.730;9.108;2022-09-13T16:51:45;26.40;64.10
6792;DHT22;3433;48.730;9.108;2022-09-13T16:54:12;26.40;64.50
6792;DHT22;3433;48.730;9.108;2022-09-13T16:56:40;26.30;65.00
6792;DHT22;3433;48.730;9.108;2022-09-13T16:59:08;26.40;65.60
6792;DHT22;3433;48.730;9.108;2022-09-13T17:01:35;26.30;66.50
6792;DHT22;3433;48.730;9.108;2022-09-13T17:04:02;26.30;67.30